Time;durP1;ratioP1;P1;durP2;ratioP2;P2;SDS_P1;SDS_P2;PMS_P1;PMS_P2;Temp;Humidity;BMP_temperature;BMP_pressure;BME280_temperature;BME280_humidity;BME280_pressure;Samples;Min_cycle;Max_cycle;Signal;HPM_P1;HPM_P2
2022/07/02 00:00:15;;;;;;;1.83;1.50;;;;;;;13.84;100.00;97212.16;5153510;27;20197;-53
2022/07/02 00:02:46;;;;;;;1.73;1.63;;;;;;;13.78;100.00;97203.94;5136528;27;20200;-54
2022/07/02 00:05:14;;;;;;;3.63;1.47;;;;;;;13.72;100.00;97192.06;5132844;28;20185;-54
2022/07/02 00:07:40;;;;;;;1.70;1.63;;;;;;;13.74;100.00;97190.13;5131791;28;20208;-54
2022/07/02 00:10:10;;;;;;;1.77;1.50;;;;;;;13.71;100.00;97201.03;5131876;28;20283;-54
2022/07/02 00:12:38;;;;;;;1.63;1.53;;;;;;;13.74;100.00;97203.41;5132080;28;20212;-53
2022/07/02 00:15:06;;;;;;;2.40;2.20;;;;;;;13.69;100.00;97203.00;5132078;27;20227;-54
2022/07/02 00:17:33;;;;;;;3.63;2.40;;;;;;;13.71;100.00;97201.03;5132274;27;20207;-55
2022/07/02 00:20:02;;;;;;;2.93;2.00;;;;;;;13.70;100.00;97199.38;5132264;27;20196;-53
2022/07/02 00:22:28;;;;;;;2.83;1.80;;;;;;;13.66;100.00;97190.00;5131957;27;20528;-54
2022/07/02 00:24:55;;;;;;;2.03;1.87;;;;;;;13.66;100.00;97190.00;5131221;28;20625;-54
2022/07/02 00:27:23;;;;;;;2.77;2.10;;;;;;;13.73;100.00;97187.59;5131936;28;20207;-54
2022/07/02 00:29:55;;;;;;;2.30;1.83;;;;;;;13.70;100.00;97188.75;5131297;28;20208;-53
2022/07/02 00:32:23;;;;;;;3.07;2.03;;;;;;;13.65;100.00;97185.69;5131872;28;20196;-54
2022/07/02 00:34:51;;;;;;;2.03;1.93;;;;;;;13.71;100.00;97186.91;5134886;27;20216;-54
2022/07/02 00:37:17;;;;;;;1.90;1.80;;;;;;;13.64;100.00;97191.97;5135963;27;20747;-54
2022/07/02 00:39:46;;;;;;;3.10;2.17;;;;;;;13.58;100.00;97189.91;5135233;27;20678;-54
2022/07/02 00:42:15;;;;;;;2.20;2.00;;;;;;;13.56;100.00;97186.56;5135768;27;20283;-54
2022/07/02 00:44:43;;;;;;;2.87;2.10;;;;;;;13.53;100.00;97186.88;5135280;27;20261;-54
2022/07/02 00:47:12;;;;;;;1.90;1.70;;;;;;;13.53;100.00;97194.00;5135422;27;20196;-53
2022/07/02 00:49:39;;;;;;;2.10;2.00;;;;;;;13.52;100.00;97189.66;5135972;27;20219;-54
2022/07/02 00:52:07;;;;;;;2.23;2.10;;;;;;;13.51;100.00;97188.00;5135599;27;20211;-54
2022/07/02 00:54:35;;;;;;;3.10;2.00;;;;;;;13.56;100.00;97188.41;5135871;27;20228;-54
2022/07/02 00:57:01;;;;;;;2.20;2.00;;;;;;;13.57;100.00;97190.06;5136674;27;20270;-54
2022/07/02 00:59:28;;;;;;;2.63;2.03;;;;;;;13.50;100.00;97186.34;5135221;27;20207;-54
2022/07/02 01:01:55;;;;;;;5.27;2.20;;;;;;;13.46;100.00;97180.47;5135741;27;20192;-54
2022/07/02 01:04:23;;;;;;;2.33;2.20;;;;;;;13.44;100.00;97185.09;5135649;27;20202;-54
2022/07/02 01:06:53;;;;;;;2.87;1.93;;;;;;;13.43;100.00;97194.03;5135079;27;20209;-54
2022/07/02 01:12:05;;;;;;;2.40;2.20;;;;;;;13.40;100.00;97189.88;5134825;27;20223;-53
2022/07/02 01:14:31;;;;;;;3.10;2.40;;;;;;;13.39;100.00;97195.34;5135041;27;20224;-54
2022/07/02 01:17:00;;;;;;;3.50;1.80;;;;;;;13.46;100.00;97188.44;5135186;27;20540;-52
2022/07/02 01:19:29;;;;;;;2.23;1.90;;;;;;;13.37;100.00;97186.66;5135270;27;20216;-54
2022/07/02 01:22:13;;;;;;;2.40;1.97;;;;;;;13.35;100.00;97186.81;5134412;27;20624;-54
2022/07/02 01:24:40;;;;;;;3.20;2.43;;;;;;;13.35;100.00;97183.34;5135380;27;20279;-54
2022/07/02 01:27:08;;;;;;;5.03;2.00;;;;;;;13.37;100.00;97181.34;5133273;27;20197;-54
2022/07/02 01:29:37;;;;;;;3.90;2.13;;;;;;;13.37;100.00;97173.38;5134801;27;20636;-54
2022/07/02 01:32:05;;;;;;;2.40;2.20;;;;;;;13.42;100.00;97181.75;5134726;27;20257;-53
2022/07/02 01:34:35;;;;;;;2.27;2.10;;;;;;;13.39;100.00;97185.53;5134284;27;20220;-54
2022/07/02 01:37:02;;;;;;;3.53;2.00;;;;;;;13.31;100.00;97180.13;5135048;27;20697;-52
2022/07/02 01:39:32;;;;;;;2.30;2.10;;;;;;;13.28;100.00;97184.91;5133987;27;20681;-53
2022/07/02 01:42:00;;;;;;;3.00;2.20;;;;;;;13.27;100.00;97180.56;5134378;27;20196;-54
2022/07/02 01:44:27;;;;;;;3.83;2.23;;;;;;;13.31;100.00;97181.94;5133823;27;20672;-54
2022/07/02 01:46:53;;;;;;;2.40;2.30;;;;;;;13.28;100.00;97185.75;5134081;27;20200;-54
2022/07/02 01:49:20;;;;;;;2.23;2.03;;;;;;;13.27;100.00;97185.88;5134373;27;20201;-54
2022/07/02 01:51:46;;;;;;;2.47;2.27;;;;;;;13.31;100.00;97187.25;5134466;27;20287;-54
2022/07/02 01:54:13;;;;;;;3.30;2.40;;;;;;;13.32;100.00;97183.63;5134507;27;20240;-53
2022/07/02 01:56:41;;;;;;;2.03;1.90;;;;;;;13.25;100.00;97178.03;5134347;27;20215;-53
2022/07/02 01:59:08;;;;;;;7.07;2.50;;;;;;;13.20;100.00;97177.66;5134676;27;20210;-53
2022/07/02 02:01:35;;;;;;;3.27;2.40;;;;;;;13.28;100.00;97187.56;5134454;27;20200;-54
2022/07/02 02:04:03;;;;;;;2.40;2.30;;;;;;;13.32;100.00;97186.28;5133890;27;20200;-54
2022/07/02 02:06:30;;;;;;;3.77;2.57;;;;;;;13.26;100.00;97184.19;5134356;27;20189;-54
2022/07/02 02:08:57;;;;;;;2.47;2.27;;;;;;;13.21;100.00;97192.63;5133752;27;20510;-54
2022/07/02 02:11:24;;;;;;;2.80;2.40;;;;;;;13.19;100.00;97186.59;5134354;27;20200;-54
2022/07/02 02:13:52;;;;;;;3.13;2.20;;;;;;;13.16;100.00;97191.38;5134307;27;20535;-52
2022/07/02 02:16:20;;;;;;;2.73;2.53;;;;;;;13.16;100.00;97194.03;5134417;27;20212;-54
2022/07/02 02:18:48;;;;;;;2.53;2.33;;;;;;;13.12;100.00;97184.66;5133993;27;20197;-53
2022/07/02 02:21:15;;;;;;;3.00;2.70;;;;;;;13.14;100.00;97185.38;5133825;27;20196;-54
2022/07/02 02:23:42;;;;;;;2.77;2.57;;;;;;;13.13;100.00;97184.53;5133287;27;20678;-53
2022/07/02 02:26:09;;;;;;;3.27;2.80;;;;;;;13.12;100.00;97187.31;5133283;27;20196;-52
2022/07/02 02:28:35;;;;;;;3.13;2.93;;;;;;;13.10;100.00;97181.34;5133295;27;20628;-54
2022/07/02 02:31:05;;;;;;;3.03;2.83;;;;;;;13.11;100.00;97181.16;5133020;27;20678;-54
2022/07/02 02:33:32;;;;;;;3.23;3.00;;;;;;;13.07;100.00;97178.94;5133690;27;20283;-54
2022/07/02 02:35:59;;;;;;;3.00;2.80;;;;;;;13.07;100.00;97173.63;5133762;27;20224;-54
2022/07/02 02:38:28;;;;;;;2.80;2.70;;;;;;;13.04;100.00;97168.63;5132735;27;20644;-54
2022/07/02 02:40:56;;;;;;;2.73;2.53;;;;;;;13.06;100.00;97177.25;5132607;27;20702;-54
2022/07/02 02:43:24;;;;;;;2.90;2.70;;;;;;;13.06;100.00;97182.56;5133713;27;20204;-53
2022/07/02 02:45:51;;;;;;;3.40;2.80;;;;;;;13.00;100.00;97185.81;5133657;27;20545;-54
2022/07/02 02:48:19;;;;;;;3.90;3.10;;;;;;;12.98;100.00;97180.63;5132692;27;20571;-54
2022/07/02 02:50:47;;;;;;;3.33;3.03;;;;;;;12.97;100.00;97179.78;5133082;27;20550;-54
2022/07/02 02:53:14;;;;;;;2.97;2.77;;;;;;;12.98;100.00;97178.81;5133270;27;20294;-54
2022/07/02 02:55:41;;;;;;;3.00;2.80;;;;;;;13.03;100.00;97183.72;5133190;27;20227;-54
2022/07/02 02:58:10;;;;;;;3.10;2.90;;;;;;;12.98;100.00;97180.63;5132032;27;20579;-54
2022/07/02 03:00:36;;;;;;;3.27;3.07;;;;;;;13.00;100.00;97183.16;5132484;27;20199;-54
2022/07/02 03:03:03;;;;;;;3.70;2.70;;;;;;;13.03;100.00;97188.19;5141808;27;20281;-54
2022/07/02 03:05:32;;;;;;;2.93;2.73;;;;;;;13.07;100.00;97189.56;5142094;27;20200;-54
2022/07/02 03:07:59;;;;;;;3.17;2.97;;;;;;;13.06;100.00;97191.38;5140089;27;20283;-54
2022/07/02 03:10:26;;;;;;;2.70;2.50;;;;;;;13.13;100.00;97184.53;5133579;27;20307;-54
2022/07/02 03:12:54;;;;;;;3.10;2.90;;;;;;;13.21;100.00;97194.44;5141814;27;20219;-54
2022/07/02 03:15:21;;;;;;;2.93;2.70;;;;;;;13.24;100.00;97188.81;5140082;27;20223;-54
2022/07/02 03:17:48;;;;;;;3.07;2.87;;;;;;;13.26;100.00;97185.03;5138154;27;20331;-54
2022/07/02 03:20:14;;;;;;;3.40;3.10;;;;;;;13.31;100.00;97187.25;5133266;27;20206;-54
2022/07/02 03:22:42;;;;;;;4.00;3.13;;;;;;;13.35;100.00;97180.66;5133506;27;20532;-54
2022/07/02 03:25:11;;;;;;;3.17;2.97;;;;;;;13.40;100.00;97181.88;5132852;27;20196;-54
2022/07/02 03:27:38;;;;;;;3.37;3.17;;;;;;;13.46;100.00;97185.78;5131484;27;20906;-54
2022/07/02 03:30:10;;;;;;;3.30;3.10;;;;;;;13.50;100.00;97181.84;5132771;27;20200;-54
2022/07/02 03:32:37;;;;;;;3.63;3.37;;;;;;;13.58;100.00;97187.25;5132681;27;20287;-54
2022/07/02 03:35:05;;;;;;;3.10;3.00;;;;;;;13.64;100.00;97184.00;5132445;27;20216;-54
2022/07/02 03:37:31;;;;;;;5.13;4.73;;;;;;;13.72;100.00;97185.91;5132432;27;20205;-54
2022/07/02 03:40:00;;;;;;;4.63;4.33;;;;;;;13.79;100.00;97187.81;5132710;27;20235;-54
2022/07/02 03:42:27;;;;;;;5.13;4.73;;;;;;;13.83;100.00;97191.88;5131659;27;20208;-53
2022/07/02 03:44:56;;;;;;;5.43;5.03;;;;;;;13.88;100.00;97192.25;5132072;27;20548;-54
2022/07/02 03:47:25;;;;;;;5.50;5.03;;;;;;;13.93;100.00;97195.28;5132426;27;20203;-54
2022/07/02 03:49:52;;;;;;;5.67;5.20;;;;;;;13.97;100.00;97201.16;5132597;27;20196;-54
2022/07/02 03:52:18;;;;;;;6.80;5.20;;;;;;;13.98;100.00;97199.31;5132221;27;20203;-54
2022/07/02 03:54:45;;;;;;;5.77;5.23;;;;;;;14.00;100.00;97194.69;5131540;27;20295;-54
2022/07/02 03:57:13;;;;;;;5.53;5.13;;;;;;;14.04;100.00;97193.41;5131887;27;20641;-54
2022/07/02 03:59:39;;;;;;;6.00;5.50;;;;;;;14.01;100.00;97196.34;5132380;28;20529;-54
2022/07/02 04:02:06;;;;;;;5.67;5.27;;;;;;;14.03;100.00;97197.88;5132040;27;20292;-53
2022/07/02 04:04:32;;;;;;;5.90;5.40;;;;;;;14.03;100.00;97191.75;5132029;28;20207;-54
2022/07/02 04:06:59;;;;;;;5.77;5.37;;;;;;;13.99;100.00;97193.03;5131817;28;20201;-54
2022/07/02 04:09:25;;;;;;;5.63;5.13;;;;;;;13.96;100.00;97199.47;5134340;27;20299;-54
2022/07/02 04:11:54;;;;;;;5.60;5.20;;;;;;;13.96;100.00;97194.16;5136124;27;20196;-54
2022/07/02 04:14:23;;;;;;;5.57;5.13;;;;;;;13.95;100.00;97197.81;5136144;27;21421;-54
2022/07/02 04:16:50;;;;;;;5.50;5.10;;;;;;;14.10;100.00;97203.44;5136208;27;20220;-55
2022/07/02 04:19:17;;;;;;;5.73;5.33;;;;;;;14.41;100.00;97200.28;5136024;27;20220;-54
2022/07/02 04:21:43;;;;;;;6.10;5.60;;;;;;;14.64;100.00;97200.63;5135809;27;20283;-53
2022/07/02 04:24:11;;;;;;;5.60;5.10;;;;;;;14.86;100.00;97199.28;5135754;27;20529;-54
2022/07/02 04:26:38;;;;;;;5.87;5.37;;;;;;;15.35;100.00;97201.25;5135693;27;20620;-54
2022/07/02 04:29:06;;;;;;;5.60;5.20;;;;;;;15.60;100.00;97210.22;5135495;27;20306;-54
2022/07/02 04:31:34;;;;;;;5.80;5.20;;;;;;;15.45;100.00;97201.13;5135903;27;20197;-54
2022/07/02 04:34:01;;;;;;;5.20;4.70;;;;;;;15.60;100.00;97204.06;5136242;27;20207;-54
2022/07/02 04:36:29;;;;;;;4.40;4.10;;;;;;;15.80;100.00;97210.81;5135369;27;20330;-54
2022/07/02 04:38:56;;;;;;;4.47;4.17;;;;;;;15.69;100.00;97214.63;5136007;27;20292;-54
2022/07/02 04:41:27;;;;;;;4.00;3.70;;;;;;;15.79;100.00;97210.00;5135415;27;20253;-54
2022/07/02 04:43:53;;;;;;;4.70;4.30;;;;;;;15.68;100.00;97212.09;5135939;27;20201;-54
2022/07/02 04:46:20;;;;;;;4.63;4.17;;;;;;;15.56;100.00;97208.88;5135277;27;20199;-54
2022/07/02 04:48:49;;;;;;;4.67;4.27;;;;;;;15.55;100.00;97212.56;5136226;27;20219;-53
2022/07/02 04:51:17;;;;;;;4.03;3.73;;;;;;;15.56;100.00;97211.53;5135120;27;20219;-54
2022/07/02 04:53:43;;;;;;;4.00;3.80;;;;;;;15.57;100.00;97221.22;5135711;27;20208;-54
2022/07/02 04:56:11;;;;;;;4.13;3.87;;;;;;;15.53;100.00;97217.19;5135589;27;20222;-54
2022/07/02 04:58:37;;;;;;;3.80;3.60;;;;;;;15.58;100.00;97222.06;5135307;27;20200;-55
2022/07/02 05:01:04;;;;;;;4.00;3.80;;;;;;;15.49;100.00;97225.66;5135211;27;20204;-54
2022/07/02 05:03:31;;;;;;;3.90;3.70;;;;;;;15.53;100.00;97222.53;5136743;27;20307;-53
2022/07/02 05:05:59;;;;;;;4.50;4.10;;;;;;;15.56;100.00;97230.22;5136364;27;20292;-54
2022/07/02 05:08:27;;;;;;;4.10;3.90;;;;;;;15.53;100.00;97227.88;5136497;27;20220;-54
2022/07/02 05:10:54;;;;;;;4.30;4.00;;;;;;;15.60;100.00;97220.06;5137493;27;20304;-54
2022/07/02 05:13:22;;;;;;;4.47;4.17;;;;;;;15.64;100.00;97221.41;5136136;27;20226;-54
2022/07/02 05:15:49;;;;;;;4.03;3.60;;;;;;;15.65;100.00;97217.75;5138341;27;20220;-53
2022/07/02 05:18:15;;;;;;;4.37;4.00;;;;;;;15.62;100.00;97224.25;5136103;27;20295;-54
2022/07/02 05:20:42;;;;;;;4.30;3.90;;;;;;;15.61;100.00;97214.56;5134163;27;20216;-53
2022/07/02 05:23:12;;;;;;;3.60;3.40;;;;;;;15.66;100.00;97208.78;5134977;27;20200;-55
2022/07/02 05:25:39;;;;;;;3.87;3.60;;;;;;;15.67;100.00;97213.09;5134639;27;20202;-54
2022/07/02 05:28:05;;;;;;;4.10;3.80;;;;;;;15.67;100.00;97205.94;5134597;27;20287;-53
2022/07/02 05:30:32;;;;;;;4.10;3.80;;;;;;;15.56;100.00;97214.22;5134689;27;20197;-54
2022/07/02 05:33:00;;;;;;;3.80;3.60;;;;;;;15.64;100.00;97205.41;5134822;27;20196;-54
2022/07/02 05:35:27;;;;;;;4.23;3.63;;;;;;;15.59;100.00;97203.22;5135260;27;20236;-54
2022/07/02 05:37:53;;;;;;;3.43;3.20;;;;;;;15.70;100.00;97202.09;5134967;27;20212;-54
2022/07/02 05:40:21;;;;;;;3.50;3.20;;;;;;;15.80;99.67;97200.16;5134784;27;20224;-54
2022/07/02 05:42:49;;;;;;;3.17;2.97;;;;;;;15.92;99.52;97210.34;5135193;27;20201;-54
2022/07/02 05:45:16;;;;;;;3.37;3.03;;;;;;;15.99;98.75;97204.34;5134490;27;20208;-54
2022/07/02 05:47:44;;;;;;;3.17;2.97;;;;;;;16.05;96.98;97209.06;5134701;27;20288;-54
2022/07/02 05:50:11;;;;;;;4.17;3.47;;;;;;;16.05;96.96;97207.22;5134508;27;20211;-53
2022/07/02 05:52:38;;;;;;;3.70;3.50;;;;;;;16.05;95.45;97195.72;5134124;27;20205;-54
2022/07/02 05:55:06;;;;;;;3.27;3.07;;;;;;;16.20;95.21;97207.41;5135171;27;20208;-54
2022/07/02 05:57:34;;;;;;;3.87;3.33;;;;;;;16.33;94.39;97199.78;5134519;27;20311;-53
2022/07/02 06:00:06;;;;;;;3.00;2.80;;;;;;;16.43;95.12;97200.44;5135201;27;20287;-54
2022/07/02 06:02:34;;;;;;;3.17;2.93;;;;;;;16.44;94.04;97194.09;5134824;27;20231;-54
2022/07/02 06:07:38;;;;;;;3.27;3.07;;;;;;;16.64;94.35;97199.97;5135698;27;20200;-54
2022/07/02 06:07:50;;;;;;;3.43;3.13;;;;;;;17.34;91.50;97198.38;5134405;27;20303;-52
2022/07/02 06:10:18;;;;;;;3.30;3.10;;;;;;;17.87;90.33;97195.03;5134459;27;20279;-54
2022/07/02 06:12:50;;;;;;;2.78;2.58;;;;;;;18.13;86.73;97192.88;5134575;27;20197;-54
2022/07/02 06:15:21;;;;;;;2.95;2.70;;;;;;;18.19;85.58;97194.84;5134030;27;20200;-55
2022/07/02 06:17:51;;;;;;;3.60;2.45;;;;;;;18.21;84.77;97198.16;5134547;27;20188;-54
2022/07/02 06:20:20;;;;;;;2.78;2.60;;;;;;;18.48;82.97;97188.78;5134212;27;20505;-55
2022/07/02 06:22:47;;;;;;;3.33;2.55;;;;;;;19.00;83.87;97190.72;5134405;27;20197;-54
2022/07/02 06:25:13;;;;;;;2.30;2.20;;;;;;;19.54;82.65;97194.03;5134582;27;20204;-54
2022/07/02 06:27:40;;;;;;;2.72;2.53;;;;;;;19.86;75.03;97186.41;5134401;27;20291;-54
2022/07/02 06:30:12;;;;;;;4.55;2.20;;;;;;;20.18;74.90;97189.66;5133098;27;20203;-54
2022/07/02 06:32:40;;;;;;;2.47;2.38;;;;;;;20.13;72.52;97184.03;5134210;27;20192;-55
2022/07/02 06:35:09;;;;;;;2.63;2.42;;;;;;;20.17;71.17;97182.63;5134552;27;20203;-55
2022/07/02 06:37:36;;;;;;;2.10;1.90;;;;;;;20.45;73.82;97174.69;5134113;27;20234;-53
2022/07/02 06:40:06;;;;;;;2.10;2.00;;;;;;;20.23;73.53;97171.13;5132441;27;20232;-54
2022/07/02 06:42:33;;;;;;;2.03;1.92;;;;;;;20.14;73.99;97174.97;5134209;27;20299;-53
2022/07/02 06:45:03;;;;;;;2.08;1.98;;;;;;;20.00;72.56;97178.50;5133988;27;20212;-54
2022/07/02 06:47:32;;;;;;;2.00;1.90;;;;;;;19.74;75.69;97179.84;5132103;27;20217;-54
2022/07/02 06:50:00;;;;;;;2.95;2.20;;;;;;;19.54;75.09;97176.09;5134078;27;20205;-55
2022/07/02 06:52:29;;;;;;;1.92;1.83;;;;;;;19.54;74.64;97167.19;5134139;27;20212;-54
2022/07/02 06:54:58;;;;;;;2.40;2.20;;;;;;;19.24;74.99;97174.38;5138926;27;20210;-53
2022/07/02 06:57:26;;;;;;;2.20;2.10;;;;;;;18.85;76.81;97170.06;5158940;27;20200;-54
2022/07/02 06:59:54;;;;;;;2.97;2.13;;;;;;;18.79;78.26;97173.47;5153266;27;20180;-55
2022/07/02 07:02:21;;;;;;;2.50;2.30;;;;;;;18.65;79.05;97171.59;5134043;27;20207;-55
2022/07/02 07:04:51;;;;;;;2.20;2.10;;;;;;;18.49;79.32;97184.25;5158071;27;20173;-54
2022/07/02 07:07:19;;;;;;;2.97;2.13;;;;;;;18.36;82.48;97174.13;5158551;27;20635;-53
2022/07/02 07:09:46;;;;;;;3.47;2.17;;;;;;;18.21;81.94;97175.94;5141520;27;20230;-54
2022/07/02 07:12:14;;;;;;;2.05;1.95;;;;;;;18.26;82.90;97176.22;5133533;27;20209;-54
2022/07/02 07:14:40;;;;;;;2.63;1.98;;;;;;;18.39;83.39;97169.25;5133567;27;20200;-54
2022/07/02 07:17:09;;;;;;;2.20;2.00;;;;;;;18.43;81.40;97175.09;5134049;27;20299;-54
2022/07/02 07:19:35;;;;;;;2.10;1.45;;;;;;;18.66;82.79;97167.91;5133658;27;20201;-54
2022/07/02 07:22:09;;;;;;;1.98;1.88;;;;;;;18.55;80.00;97162.16;5133156;27;20212;-54
2022/07/02 07:24:36;;;;;;;1.80;1.70;;;;;;;18.57;82.48;97166.28;5133687;27;20283;-55
2022/07/02 07:27:02;;;;;;;2.25;2.05;;;;;;;19.19;80.36;97166.06;5134677;27;20211;-55
2022/07/02 07:29:31;;;;;;;1.65;1.60;;;;;;;19.79;77.61;97161.34;5138203;27;20205;-55
2022/07/02 07:31:58;;;;;;;1.40;1.40;;;;;;;20.26;75.52;97160.03;5136322;27;20200;-54
2022/07/02 07:34:27;;;;;;;2.28;1.40;;;;;;;20.80;74.41;97147.72;5144202;27;20200;-54
2022/07/02 07:36:55;;;;;;;1.83;1.73;;;;;;;21.16;71.46;97152.16;5138187;27;20538;-54
2022/07/02 07:39:23;;;;;;;2.28;1.30;;;;;;;21.01;69.93;97146.03;5139489;27;20197;-54
2022/07/02 07:41:52;;;;;;;1.95;1.40;;;;;;;21.57;66.82;97142.28;5146366;27;20223;-55
2022/07/02 07:44:20;;;;;;;1.60;1.50;;;;;;;21.88;68.45;97135.56;5148831;27;20192;-55
2022/07/02 07:46:47;;;;;;;1.92;1.50;;;;;;;21.92;63.56;97142.25;5138376;27;20204;-54
2022/07/02 07:49:15;;;;;;;1.67;1.58;;;;;;;21.65;65.94;97143.94;5149189;27;20193;-56
2022/07/02 07:51:42;;;;;;;1.40;1.30;;;;;;;21.73;67.30;97147.31;5149279;27;20266;-54
2022/07/02 07:54:09;;;;;;;1.40;1.30;;;;;;;21.84;67.33;97133.28;5149696;27;20239;-60
2022/07/02 07:56:41;;;;;;;1.65;1.55;;;;;;;22.10;67.66;97123.66;5156617;27;20219;-54
2022/07/02 07:59:07;;;;;;;1.35;1.25;;;;;;;22.25;66.17;97116.19;5159638;28;20192;-54
2022/07/02 08:01:34;;;;;;;1.25;1.25;;;;;;;22.62;67.32;97129.13;5159689;27;20173;-54
2022/07/02 08:04:02;;;;;;;1.48;1.10;;;;;;;22.78;64.27;97128.72;5159491;27;20177;-54
2022/07/02 08:06:31;;;;;;;1.40;1.10;;;;;;;22.94;60.65;97119.41;5157189;27;20193;-54
2022/07/02 08:08:59;;;;;;;1.50;1.40;;;;;;;23.19;59.40;97125.81;5153592;27;20198;-70
2022/07/02 08:11:27;;;;;;;1.35;1.25;;;;;;;22.74;62.37;97122.09;5157724;27;20172;-54
2022/07/02 08:13:57;;;;;;;1.98;1.30;;;;;;;22.62;65.71;97129.13;5156773;28;20179;-55
2022/07/02 08:16:25;;;;;;;2.67;1.75;;;;;;;22.90;63.18;97117.31;5157265;27;20211;-55
2022/07/02 08:18:53;;;;;;;3.08;1.70;;;;;;;23.22;64.15;97124.53;5143241;27;20197;-55
2022/07/02 08:21:21;;;;;;;1.45;1.35;;;;;;;23.33;61.58;97123.06;5133494;28;20204;-54
2022/07/02 08:23:47;;;;;;;3.38;1.30;;;;;;;23.43;62.71;97116.22;5131322;28;20219;-53
2022/07/02 08:26:14;;;;;;;1.40;1.40;;;;;;;23.42;61.92;97119.94;5132246;28;20625;-55
2022/07/02 08:28:43;;;;;;;4.78;1.25;;;;;;;23.68;63.39;97114.47;5131661;27;20518;-55
2022/07/02 08:31:11;;;;;;;1.10;1.10;;;;;;;23.86;60.53;97107.53;5132139;28;20208;-57
2022/07/02 08:33:37;;;;;;;1.70;1.60;;;;;;;23.71;59.46;97111.34;5131447;28;20288;-54
2022/07/02 08:36:06;;;;;;;1.70;1.60;;;;;;;23.70;60.38;97112.38;5132812;27;20303;-54
2022/07/02 08:38:35;;;;;;;2.08;1.40;;;;;;;23.55;60.47;97109.13;5131854;27;20260;-55
2022/07/02 08:41:02;;;;;;;1.60;1.50;;;;;;;23.74;62.36;97110.06;5132035;28;20600;-56
2022/07/02 08:43:31;;;;;;;1.90;1.23;;;;;;;23.77;60.93;97113.19;5132233;28;20633;-56
2022/07/02 08:46:02;;;;;;;1.50;1.40;;;;;;;23.72;58.86;97107.59;5130982;28;20200;-55
2022/07/02 08:48:33;;;;;;;1.20;1.20;;;;;;;24.00;62.10;97109.13;5131953;28;20723;-56
2022/07/02 08:51:01;;;;;;;2.05;1.15;;;;;;;23.75;57.96;97090.97;5132030;28;20283;-56
2022/07/02 08:53:28;;;;;;;1.30;1.30;;;;;;;23.82;61.40;97090.09;5132339;27;20201;-56
2022/07/02 08:55:55;;;;;;;1.67;1.00;;;;;;;24.14;58.66;97095.38;5135348;27;20204;-56
2022/07/02 08:58:22;;;;;;;1.98;1.30;;;;;;;24.18;58.70;97076.84;5135433;27;20255;-56
2022/07/02 09:00:49;;;;;;;1.60;1.50;;;;;;;24.19;58.62;97083.91;5136000;27;20664;-56
2022/07/02 09:03:22;;;;;;;1.70;1.60;;;;;;;24.33;58.22;97080.06;5136615;27;20216;-55
2022/07/02 09:05:52;;;;;;;1.35;1.25;;;;;;;24.23;58.66;97085.94;5136450;27;20196;-56
2022/07/02 09:08:18;;;;;;;1.10;1.00;;;;;;;24.30;59.73;97094.03;5136252;27;20196;-57
2022/07/02 09:10:46;;;;;;;1.40;1.20;;;;;;;24.58;59.78;97088.22;5137237;27;20204;-57
2022/07/02 09:13:14;;;;;;;1.05;0.98;;;;;;;24.74;56.65;97101.16;5136931;27;20193;-58
2022/07/02 09:15:46;;;;;;;1.73;1.10;;;;;;;24.86;56.33;97095.91;5136237;27;20196;-57
2022/07/02 09:18:16;;;;;;;1.55;1.27;;;;;;;24.92;56.80;97095.00;5138337;27;20534;-54
2022/07/02 09:20:42;;;;;;;1.20;0.90;;;;;;;25.01;58.33;97088.28;5149339;27;20868;-55
2022/07/02 09:23:19;;;;;;;0.82;0.82;;;;;;;25.22;54.26;97085.16;5153308;27;20200;-55
2022/07/02 09:25:46;;;;;;;1.30;1.20;;;;;;;25.16;57.38;97091.44;5153959;27;20211;-57
2022/07/02 09:28:14;;;;;;;1.20;1.10;;;;;;;25.18;55.94;97086.66;5152760;27;20185;-57
2022/07/02 09:30:41;;;;;;;0.98;0.98;;;;;;;25.53;53.43;97079.63;5150923;27;20230;-56
2022/07/02 09:33:32;;;;;;;1.13;1.13;;;;;;;25.55;54.09;97080.22;5143746;27;20313;-53
2022/07/02 09:36:00;;;;;;;2.15;1.88;;;;;;;25.26;55.13;97089.03;5134998;27;20204;-55
2022/07/02 09:38:28;;;;;;;1.10;1.05;;;;;;;25.52;54.07;97075.25;5134699;27;20223;-54
2022/07/02 09:40:56;;;;;;;1.98;0.90;;;;;;;25.31;53.57;97075.66;5135862;27;20224;-55
2022/07/02 09:43:27;;;;;;;0.93;0.90;;;;;;;25.44;53.46;97064.69;5144785;27;20215;-53
2022/07/02 09:45:54;;;;;;;1.17;1.02;;;;;;;25.76;54.03;97070.78;5139505;27;20203;-56
2022/07/02 09:48:21;;;;;;;1.00;1.00;;;;;;;25.67;53.10;97059.44;5138771;27;20208;-56
2022/07/02 09:50:51;;;;;;;2.05;1.00;;;;;;;25.49;55.22;97059.41;5137382;27;20211;-54
2022/07/02 09:53:18;;;;;;;1.52;0.90;;;;;;;25.89;53.60;97058.94;5139242;27;20239;-55
2022/07/02 09:55:52;;;;;;;1.35;0.90;;;;;;;25.96;53.79;97059.69;5139310;27;20200;-54
2022/07/02 09:58:28;;;;;;;1.67;1.23;;;;;;;25.93;53.28;97058.28;5140669;27;20208;-55
2022/07/02 10:00:55;;;;;;;3.42;1.08;;;;;;;26.14;51.88;97065.06;5134242;27;20196;-56
2022/07/02 10:03:24;;;;;;;0.70;0.70;;;;;;;26.13;50.78;97066.09;5134967;27;20211;-56
2022/07/02 10:05:54;;;;;;;1.42;0.80;;;;;;;26.07;51.28;97072.47;5133900;27;20654;-56
2022/07/02 10:08:20;;;;;;;0.80;0.80;;;;;;;25.81;48.71;97079.06;5133963;27;20224;-55
2022/07/02 10:10:49;;;;;;;0.82;0.82;;;;;;;26.16;50.40;97068.34;5134787;27;20620;-54
2022/07/02 10:13:17;;;;;;;0.82;0.82;;;;;;;26.33;50.81;97069.38;5134121;27;20644;-55
2022/07/02 10:15:50;;;;;;;0.80;0.80;;;;;;;26.32;50.23;97065.03;5134828;27;20210;-55
2022/07/02 10:18:20;;;;;;;0.60;0.60;;;;;;;26.64;52.90;97058.22;5134234;27;20223;-55
2022/07/02 10:20:48;;;;;;;1.35;0.85;;;;;;;26.85;49.28;97066.91;5134520;27;20230;-56
2022/07/02 10:23:17;;;;;;;0.85;0.70;;;;;;;26.91;51.24;97066.78;5134022;27;20204;-54
2022/07/02 10:25:46;;;;;;;0.73;0.73;;;;;;;27.23;51.18;97067.25;5133931;27;20205;-53
2022/07/02 10:28:14;;;;;;;1.48;0.90;;;;;;;26.80;48.18;97056.72;5134420;27;20283;-54
2022/07/02 10:30:41;;;;;;;0.88;0.88;;;;;;;26.75;47.90;97047.66;5134217;27;20335;-54
2022/07/02 10:33:15;;;;;;;3.35;0.70;;;;;;;26.91;49.26;97046.97;5134416;27;20216;-54
2022/07/02 10:35:42;;;;;;;2.67;1.13;;;;;;;26.92;51.44;97048.63;5133659;27;20512;-55
2022/07/02 10:38:11;;;;;;;1.92;0.77;;;;;;;26.99;48.61;97054.75;5132773;27;20604;-53
2022/07/02 10:40:46;;;;;;;0.90;0.90;;;;;;;27.03;48.22;97048.59;5134769;27;20220;-53
2022/07/02 10:43:16;;;;;;;2.22;0.73;;;;;;;27.08;47.76;97054.16;5135745;27;20257;-54
2022/07/02 10:45:46;;;;;;;0.90;0.90;;;;;;;27.20;48.73;97040.56;5133984;27;20339;-54
2022/07/02 10:48:14;;;;;;;1.75;0.80;;;;;;;26.87;46.38;97037.63;5141645;27;20188;-55
2022/07/02 10:50:46;;;;;;;0.90;0.90;;;;;;;26.96;47.47;97034.31;5154987;27;20189;-55
2022/07/02 10:53:14;;;;;;;1.00;1.00;;;;;;;27.20;49.02;97029.72;5143397;27;20557;-53
2022/07/02 10:55:44;;;;;;;1.13;0.85;;;;;;;27.38;47.79;97031.47;5138746;27;20271;-55
2022/07/02 10:58:19;;;;;;;1.40;0.70;;;;;;;27.52;46.39;97025.56;5154341;27;20292;-55
2022/07/02 11:00:54;;;;;;;1.05;1.05;;;;;;;27.51;49.29;97032.03;5154083;27;20210;-54
2022/07/02 11:03:23;;;;;;;1.05;1.05;;;;;;;27.51;50.15;97021.16;5136654;27;20188;-56
2022/07/02 11:05:55;;;;;;;0.93;0.70;;;;;;;27.32;46.47;97021.53;5132712;27;20200;-56
2022/07/02 11:08:46;;;;;;;0.90;0.90;;;;;;;27.23;46.38;97017.53;5132982;27;20189;-57
2022/07/02 11:11:14;;;;;;;0.88;0.88;;;;;;;27.26;45.77;97020.59;5133003;27;20208;-56
2022/07/02 11:13:46;;;;;;;1.85;1.00;;;;;;;27.48;48.28;97009.97;5133098;27;20303;-56
2022/07/02 11:16:21;;;;;;;0.70;0.70;;;;;;;27.56;46.17;97010.38;5132980;27;20288;-56
2022/07/02 11:18:48;;;;;;;1.75;0.82;;;;;;;27.73;47.21;97001.50;5132450;27;20297;-55
2022/07/02 11:21:16;;;;;;;0.70;0.70;;;;;;;27.83;47.17;97002.50;5132320;27;20196;-55
2022/07/02 11:23:43;;;;;;;1.05;1.00;;;;;;;27.82;45.34;97002.75;5132192;27;20204;-56
2022/07/02 11:26:11;;;;;;;0.77;0.77;;;;;;;27.80;44.44;96997.56;5132915;27;20211;-56
2022/07/02 11:28:38;;;;;;;0.70;0.60;;;;;;;27.86;45.88;96993.03;5132661;27;20292;-55
2022/07/02 11:31:06;;;;;;;1.20;0.65;;;;;;;28.04;46.90;96992.81;5133698;27;20236;-53
2022/07/02 11:33:32;;;;;;;0.82;0.82;;;;;;;28.25;45.38;96989.41;5132881;27;20236;-55
2022/07/02 11:35:59;;;;;;;1.00;0.90;;;;;;;28.02;46.80;96997.69;5133054;27;20193;-55